Time;durP1;ratioP1;P1;durP2;ratioP2;P2;SDS_P1;SDS_P2;PMS_P1;PMS_P2;Temp;Humidity;BMP_temperature;BMP_pressure;BME280_temperature;BME280_humidity;BME280_pressure;Samples;Min_cycle;Max_cycle;Signal;HPM_P1;HPM_P2
2021/03/23 00:00:38;;;;;;;35.65;21.30;;;;;;;5.71;73.89;100839.69;1745332;82;21198;-78
2021/03/23 00:03:13;;;;;;;35.15;22.82;;;;;;;5.70;73.12;100846.27;1745155;82;21340;-75
2021/03/23 00:05:47;;;;;;;32.57;21.20;;;;;;;5.65;72.71;100854.88;1745555;82;21882;-74
2021/03/23 00:08:29;;;;;;;;;;;;;;;5.57;72.72;100852.42;1747883;82;21202;-75
2021/03/23 00:11:08;;;;;;;36.38;22.32;;;;;;;5.54;72.62;100849.58;1745439;82;20194;-77
2021/03/23 00:13:42;;;;;;;33.07;20.63;;;;;;;5.48;72.57;100855.98;1653765;87;21435;-76
2021/03/23 00:16:19;;;;;;;35.92;21.50;;;;;;;5.45;72.70;100848.15;1654012;87;21563;-77
2021/03/23 00:18:52;;;;;;;37.63;22.27;;;;;;;5.46;72.54;100859.50;1653907;87;21221;-76
2021/03/23 00:21:25;;;;;;;35.53;22.07;;;;;;;5.44;72.49;100851.15;1653940;87;21209;-75
2021/03/23 00:23:58;;;;;;;38.60;24.45;;;;;;;5.41;72.28;100850.20;1654057;87;21305;-75
2021/03/23 00:26:31;;;;;;;37.77;24.00;;;;;;;5.36;72.16;100855.53;1654094;87;21301;-76
2021/03/23 00:29:06;;;;;;;35.55;22.77;;;;;;;5.26;72.21;100849.69;1653949;87;21249;-75
2021/03/23 00:31:38;;;;;;;38.07;22.67;;;;;;;5.19;72.21;100858.53;1677654;82;21218;-78
2021/03/23 00:34:12;;;;;;;38.02;24.32;;;;;;;5.13;72.12;100858.04;1745443;82;21198;-77
2021/03/23 00:36:44;;;;;;;41.33;23.55;;;;;;;5.09;72.30;100859.53;1744271;82;21237;-76
2021/03/23 00:39:17;;;;;;;36.27;22.20;;;;;;;5.09;72.33;100864.52;1738509;82;21834;-77
2021/03/23 00:41:49;;;;;;;39.70;24.55;;;;;;;5.09;72.19;100873.30;1732190;82;21241;-75
2021/03/23 00:44:24;;;;;;;46.53;25.37;;;;;;;5.05;72.10;100869.28;1745365;82;21320;-75
2021/03/23 00:46:58;;;;;;;37.93;23.90;;;;;;;4.99;72.13;100868.79;1717439;82;21352;-77
2021/03/23 00:49:32;;;;;;;31.87;21.43;;;;;;;4.97;72.35;100867.66;1745462;82;21324;-75
2021/03/23 00:52:09;;;;;;;35.80;23.37;;;;;;;4.98;72.54;100873.47;1745349;82;21340;-77
2021/03/23 00:54:41;;;;;;;38.73;24.50;;;;;;;4.99;72.42;100871.54;1745335;82;21324;-76
2021/03/23 00:57:14;;;;;;;38.87;24.30;;;;;;;5.00;72.37;100873.25;1745295;82;21331;-77
2021/03/23 00:59:46;;;;;;;37.63;24.70;;;;;;;5.02;72.23;100872.48;1740813;82;21345;-76
2021/03/23 01:02:19;;;;;;;37.50;24.20;;;;;;;5.01;72.22;100873.56;1731544;83;21250;-75
2021/03/23 01:04:52;;;;;;;39.42;25.17;;;;;;;4.99;72.17;100871.02;1731478;83;21732;-76
2021/03/23 01:07:25;;;;;;;34.98;22.85;;;;;;;4.96;72.20;100872.82;1731656;83;21348;-76
2021/03/23 01:09:58;;;;;;;;;;;;;;;4.95;72.25;100870.31;1733957;83;21846;-77
2021/03/23 01:12:31;;;;;;;40.63;24.67;;;;;;;4.95;72.34;100878.56;1731439;83;20199;-73
2021/03/23 01:15:06;;;;;;;44.67;24.40;;;;;;;4.92;72.24;100874.34;1731359;83;21353;-70
2021/03/23 01:17:38;;;;;;;44.08;26.25;;;;;;;4.95;72.22;100875.81;1731532;83;21396;-73
2021/03/23 01:20:12;;;;;;;44.70;26.03;;;;;;;4.89;72.25;100875.31;1731316;83;21321;-72
2021/03/23 01:22:44;;;;;;;41.87;24.87;;;;;;;4.84;72.45;100883.38;1731616;83;21865;-73
2021/03/23 01:25:17;;;;;;;40.78;25.23;;;;;;;4.84;72.53;100884.20;1731344;83;21344;-73
2021/03/23 01:27:50;;;;;;;40.77;25.23;;;;;;;4.85;72.66;100880.93;1731907;83;21349;-73
2021/03/23 01:30:25;;;;;;;45.57;27.23;;;;;;;4.87;72.80;100885.67;1731286;83;21342;-73
2021/03/23 01:32:58;;;;;;;46.63;26.10;;;;;;;4.90;72.79;100880.57;1731169;83;21345;-74
2021/03/23 01:35:30;;;;;;;46.73;28.03;;;;;;;4.89;72.78;100887.14;1731589;83;21254;-73
2021/03/23 01:38:03;;;;;;;49.57;28.20;;;;;;;4.87;72.85;100891.17;1731303;83;21326;-73
2021/03/23 01:40:38;;;;;;;41.63;24.80;;;;;;;4.81;72.92;100889.30;1731337;83;21384;-72
2021/03/23 01:43:13;;;;;;;41.40;25.07;;;;;;;4.79;73.05;100898.30;1731534;83;21419;-72
2021/03/23 01:45:46;;;;;;;40.50;24.87;;;;;;;4.73;73.17;100895.05;1728534;83;21377;-71
2021/03/23 01:48:25;;;;;;;42.08;25.23;;;;;;;4.69;73.30;100897.39;1731483;83;21420;-75
2021/03/23 01:51:06;;;;;;;39.80;24.70;;;;;;;4.68;73.27;100897.61;1731385;83;21445;-72
2021/03/23 01:53:47;;;;;;;43.63;26.53;;;;;;;4.65;73.16;100900.80;1731339;83;21370;-73
2021/03/23 01:56:19;;;;;;;38.13;23.23;;;;;;;4.59;73.31;100897.00;1731477;83;21385;-73
2021/03/23 01:58:52;;;;;;;40.90;23.27;;;;;;;4.54;73.51;100899.58;1731307;83;21369;-73
2021/03/23 02:01:24;;;;;;;42.23;24.27;;;;;;;4.56;73.69;100902.95;1731286;83;21353;-74
2021/03/23 02:03:58;;;;;;;36.43;22.73;;;;;;;4.58;73.61;100899.98;1731315;83;21893;-72
2021/03/23 02:06:44;;;;;;;32.50;21.13;;;;;;;4.59;73.42;100898.92;1731261;83;21842;-73
2021/03/23 02:09:28;;;;;;;37.67;23.37;;;;;;;4.60;73.21;100905.59;1731364;83;21183;-74
2021/03/23 02:12:07;;;;;;;36.50;21.87;;;;;;;4.60;73.09;100911.60;1731286;83;21460;-75
2021/03/23 02:14:43;;;;;;;33.10;19.40;;;;;;;4.59;73.02;100908.55;1728877;83;21393;-74
2021/03/23 02:17:29;;;;;;;32.50;20.00;;;;;;;4.62;73.00;100910.84;1731668;83;21195;-74
2021/03/23 02:20:17;;;;;;;30.80;18.57;;;;;;;4.66;72.60;100908.84;1731298;83;21242;-74
2021/03/23 02:22:54;;;;;;;33.53;18.50;;;;;;;4.66;72.42;100907.98;1731283;83;21333;-73
2021/03/23 02:25:27;;;;;;;28.07;17.17;;;;;;;4.70;71.55;100910.63;1728452;83;21855;-72
2021/03/23 02:27:59;;;;;;;26.97;15.90;;;;;;;4.64;70.92;100912.87;1731604;83;21211;-72
2021/03/23 02:30:39;;;;;;;24.80;16.15;;;;;;;4.57;70.86;100915.63;1731480;83;21341;-74
2021/03/23 02:33:11;;;;;;;24.97;13.40;;;;;;;4.53;70.76;100919.03;1731325;83;21210;-72
2021/03/23 02:35:44;;;;;;;24.43;13.50;;;;;;;4.55;70.92;100918.27;1731573;83;21215;-73
2021/03/23 02:38:21;;;;;;;33.10;17.43;;;;;;;4.56;70.81;100922.19;1731379;83;21917;-74
2021/03/23 02:40:54;;;;;;;36.37;16.80;;;;;;;4.58;70.59;100920.61;1731363;83;21352;-73
2021/03/23 02:43:26;;;;;;;33.83;16.47;;;;;;;4.54;70.62;100923.46;1731382;83;21773;-72
2021/03/23 02:46:00;;;;;;;33.50;16.42;;;;;;;4.53;70.63;100930.02;1731453;83;21401;-71
2021/03/23 02:48:33;;;;;;;;;;;;;;;4.54;70.63;100933.08;1733851;82;21257;-72
2021/03/23 02:51:05;;;;;;;25.97;14.77;;;;;;;4.54;70.59;100939.44;1731548;83;20619;-73
2021/03/23 02:53:39;;;;;;;26.17;13.20;;;;;;;4.53;70.64;100929.47;1726110;83;21351;-73
2021/03/23 02:56:12;;;;;;;37.65;19.00;;;;;;;4.52;70.38;100933.84;1722709;83;21206;-73
2021/03/23 02:58:45;;;;;;;31.53;15.23;;;;;;;4.50;70.40;100934.05;1702457;84;21876;-72
2021/03/23 03:01:17;;;;;;;26.97;14.75;;;;;;;4.50;70.07;100948.30;1702303;84;21351;-73
2021/03/23 03:03:50;;;;;;;22.95;13.40;;;;;;;4.50;69.77;100957.92;1702335;84;21368;-73
2021/03/23 03:06:23;;;;;;;16.85;11.65;;;;;;;4.48;69.61;100953.19;1702413;84;21901;-72
2021/03/23 03:08:56;;;;;;;18.87;11.63;;;;;;;4.45;69.71;100953.08;1702197;84;21264;-71
2021/03/23 03:11:29;;;;;;;16.87;10.30;;;;;;;4.46;69.78;100958.06;1696762;84;21340;-73
2021/03/23 03:14:02;;;;;;;22.15;11.00;;;;;;;4.51;69.67;100961.84;1697956;84;21201;-72
2021/03/23 03:16:35;;;;;;;15.07;9.40;;;;;;;4.53;69.55;100956.14;1698353;84;21217;-73
2021/03/23 03:19:08;;;;;;;16.40;10.00;;;;;;;4.56;69.32;100961.19;1695574;84;21730;-72
2021/03/23 03:21:40;;;;;;;16.63;9.33;;;;;;;4.55;69.16;100972.73;1692529;84;21710;-74
2021/03/23 03:24:14;;;;;;;15.37;9.13;;;;;;;4.56;68.78;100970.81;1695723;84;21352;-73
2021/03/23 03:26:47;;;;;;;15.53;8.93;;;;;;;4.53;68.61;100968.50;1694292;84;21225;-72
2021/03/23 03:29:19;;;;;;;14.33;7.70;;;;;;;4.52;68.56;100973.14;1689085;84;21270;-73
2021/03/23 03:31:52;;;;;;;;;;;;;;;4.54;68.12;100975.69;1695165;84;21415;-71
2021/03/23 03:34:25;;;;;;;17.33;7.50;;;;;;;4.54;67.96;100974.31;1690523;84;20197;-72
2021/03/23 03:36:58;;;;;;;12.20;7.53;;;;;;;4.54;67.57;100983.94;1690301;85;21355;-72
2021/03/23 03:39:30;;;;;;;10.50;6.73;;;;;;;4.53;67.32;100982.25;1690237;84;21245;-73
2021/03/23 03:42:03;;;;;;;13.10;7.03;;;;;;;4.53;67.17;100982.25;1692982;84;21256;-72
2021/03/23 03:44:35;;;;;;;13.10;7.37;;;;;;;4.54;66.91;100977.06;1689979;85;21268;-72
2021/03/23 03:47:08;;;;;;;10.90;6.20;;;;;;;4.51;66.54;100979.70;1690165;84;21265;-74
2021/03/23 03:49:41;;;;;;;11.05;6.00;;;;;;;4.51;65.98;100974.73;1723005;83;21459;-72
2021/03/23 03:52:13;;;;;;;13.07;6.07;;;;;;;4.46;65.96;100989.66;1696647;84;21273;-71
2021/03/23 03:54:46;;;;;;;11.25;5.28;;;;;;;4.45;66.00;100983.86;1696343;84;21352;-73
2021/03/23 03:57:18;;;;;;;16.87;6.13;;;;;;;4.45;65.65;100992.11;1696009;84;21937;-73
2021/03/23 03:59:51;;;;;;;9.20;4.73;;;;;;;4.42;65.31;100985.64;1695994;84;21786;-72
2021/03/23 04:02:23;;;;;;;11.17;4.43;;;;;;;4.41;65.04;100990.83;1695719;84;21248;-73
2021/03/23 04:04:57;;;;;;;20.65;5.70;;;;;;;4.38;64.46;100993.47;1698539;83;21411;-74
2021/03/23 04:07:36;;;;;;;10.63;4.70;;;;;;;4.35;64.36;100990.31;1715542;83;21190;-73
2021/03/23 04:10:12;;;;;;;11.00;5.30;;;;;;;4.32;64.53;100997.59;1716247;82;21719;-73
2021/03/23 04:12:44;;;;;;;16.12;4.75;;;;;;;4.32;64.46;101000.33;1717736;82;21396;-71
2021/03/23 04:15:26;;;;;;;11.80;5.30;;;;;;;4.30;64.03;101009.33;1715891;83;21268;-73
2021/03/23 04:17:59;;;;;;;14.13;5.37;;;;;;;4.28;64.06;101002.66;1715812;83;21339;-71
2021/03/23 04:20:32;;;;;;;10.83;4.20;;;;;;;4.26;63.78;101010.80;1715839;83;21343;-74
2021/03/23 04:23:05;;;;;;;11.40;4.70;;;;;;;4.25;63.78;101015.98;1715605;83;21371;-73
2021/03/23 04:25:38;;;;;;;12.17;5.60;;;;;;;4.27;63.31;101012.52;1715626;83;21351;-72
2021/03/23 04:28:10;;;;;;;10.30;4.30;;;;;;;4.27;63.21;101019.39;1715557;83;21315;-74
2021/03/23 04:30:43;;;;;;;10.77;4.87;;;;;;;4.27;63.00;101022.96;1715652;83;21343;-74
2021/03/23 04:33:20;;;;;;;14.90;4.83;;;;;;;4.28;62.68;101026.56;1715591;83;21335;-73
2021/03/23 04:35:59;;;;;;;10.67;4.37;;;;;;;4.30;62.85;101021.18;1715600;83;21352;-71
2021/03/23 04:38:37;;;;;;;17.90;4.93;;;;;;;4.31;62.62;101025.61;1715746;83;21921;-72
2021/03/23 04:41:11;;;;;;;10.80;4.87;;;;;;;4.29;62.24;101024.13;1715210;83;21928;-72
2021/03/23 04:43:47;;;;;;;17.97;5.87;;;;;;;4.28;62.37;101030.69;1715570;83;21456;-74
2021/03/23 04:46:24;;;;;;;10.43;4.00;;;;;;;4.28;62.25;101030.69;1715629;83;21346;-73
2021/03/23 04:48:57;;;;;;;11.17;3.83;;;;;;;4.27;61.92;101029.00;1715649;83;21469;-72
2021/03/23 04:51:32;;;;;;;13.83;3.40;;;;;;;4.25;61.53;101034.70;1715773;83;21347;-73
2021/03/23 04:54:09;;;;;;;9.17;3.50;;;;;;;4.26;61.33;101034.16;1715518;83;21454;-74
2021/03/23 04:56:44;;;;;;;6.77;2.93;;;;;;;4.28;60.95;101045.80;1715610;83;21742;-70
2021/03/23 04:59:17;;;;;;;12.13;3.52;;;;;;;4.30;60.93;101046.42;1715633;83;21434;-73
2021/03/23 05:01:50;;;;;;;15.63;3.67;;;;;;;4.30;60.46;101043.16;1715749;83;21268;-74
2021/03/23 05:04:23;;;;;;;21.12;3.58;;;;;;;4.29;60.33;101054.36;1715605;83;21425;-70
2021/03/23 05:06:56;;;;;;;4.03;2.40;;;;;;;4.28;60.54;101058.98;1715946;83;21209;-72
2021/03/23 05:09:29;;;;;;;7.92;3.33;;;;;;;4.29;60.35;101052.98;1715641;83;21701;-73
2021/03/23 05:12:08;;;;;;;11.83;3.05;;;;;;;4.29;60.15;101062.05;1715747;83;21900;-72
2021/03/23 05:14:41;;;;;;;6.83;3.03;;;;;;;4.30;59.97;101078.02;1715813;83;21729;-74
2021/03/23 05:17:13;;;;;;;8.40;3.57;;;;;;;4.28;59.89;101077.40;1715624;83;21209;-72
2021/03/23 05:19:46;;;;;;;4.70;2.85;;;;;;;4.25;59.91;101071.80;1716019;83;21390;-74
2021/03/23 05:22:19;;;;;;;6.10;2.20;;;;;;;4.25;60.08;101073.68;1715590;83;21330;-74
2021/03/23 05:24:52;;;;;;;;;;;;;;;4.22;59.58;101073.57;1718117;83;21335;-74
2021/03/23 05:27:24;;;;;;;8.20;2.40;;;;;;;4.23;58.95;101079.92;1718522;82;20689;-76
2021/03/23 05:29:56;;;;;;;11.87;3.70;;;;;;;4.22;59.17;101070.00;1727046;82;21250;-73
2021/03/23 05:32:29;;;;;;;9.60;2.73;;;;;;;4.22;59.34;101079.06;1717963;82;21179;-74
2021/03/23 05:35:02;;;;;;;6.10;2.52;;;;;;;4.24;58.85;101076.12;1715628;83;21311;-75
2021/03/23 05:37:36;;;;;;;13.10;3.03;;;;;;;4.25;58.70;101081.92;1711236;83;21397;-73
2021/03/23 05:40:09;;;;;;;5.47;3.13;;;;;;;4.29;58.77;101084.58;1721439;82;21889;-74
2021/03/23 05:42:42;;;;;;;7.03;2.58;;;;;;;4.33;58.59;101089.98;1735898;82;21289;-74
2021/03/23 05:45:34;;;;;;;5.93;2.57;;;;;;;4.36;58.41;101089.03;1745406;82;21838;-74
2021/03/23 05:48:25;;;;;;;7.10;2.37;;;;;;;4.39;57.78;101085.02;1745083;82;21332;-72
2021/03/23 05:51:18;;;;;;;7.17;2.57;;;;;;;4.43;57.66;101082.15;1745156;82;21484;-74
2021/03/23 05:54:15;;;;;;;7.05;2.77;;;;;;;4.49;57.70;101075.80;1715833;83;21361;-74
2021/03/23 05:56:59;;;;;;;9.73;2.92;;;;;;;4.56;57.83;101079.39;1714961;82;21432;-74
2021/03/23 05:59:54;;;;;;;7.17;2.97;;;;;;;4.69;57.24;101091.75;1727598;82;21328;-75
2021/03/23 06:02:56;;;;;;;10.65;2.33;;;;;;;4.77;56.35;101092.92;1738612;82;21882;-73
2021/03/23 06:06:07;;;;;;;8.17;3.00;;;;;;;4.84;56.52;101086.89;1737675;81;21376;-73
2021/03/23 06:08:40;;;;;;;13.35;3.47;;;;;;;4.93;56.20;101089.20;1715542;83;21340;-72
2021/03/23 06:11:43;;;;;;;16.70;4.05;;;;;;;5.10;55.74;101095.08;1715317;83;21850;-75
2021/03/23 06:14:31;;;;;;;11.57;3.92;;;;;;;5.23;54.92;101096.42;1715222;83;21861;-75
2021/03/23 06:17:23;;;;;;;8.73;3.27;;;;;;;5.39;55.23;101105.59;1722985;82;21253;-73
2021/03/23 06:20:10;;;;;;;12.10;3.47;;;;;;;5.64;54.79;101110.16;1720279;82;21218;-72
2021/03/23 06:23:02;;;;;;;14.50;3.12;;;;;;;5.92;54.07;101111.23;1723576;82;21938;-73
2021/03/23 06:25:51;;;;;;;9.05;3.33;;;;;;;6.19;51.41;101119.64;1724716;82;21314;-75
2021/03/23 06:29:05;;;;;;;14.33;5.05;;;;;;;6.45;51.54;101113.41;1733459;82;21836;-74
2021/03/23 06:32:10;;;;;;;15.35;4.60;;;;;;;6.81;50.78;101117.69;1726288;82;21265;-78
2021/03/23 06:34:43;;;;;;;11.88;3.70;;;;;;;7.31;50.10;101130.34;1680939;84;21194;-77
2021/03/23 06:37:30;;;;;;;7.35;2.92;;;;;;;7.79;48.78;101126.58;1688439;84;21261;-76
2021/03/23 06:40:17;;;;;;;9.35;2.58;;;;;;;8.18;48.06;101129.35;1688498;85;21809;-78
2021/03/23 06:42:56;;;;;;;5.10;2.67;;;;;;;8.51;46.57;101130.59;1686383;84;21372;-74
2021/03/23 06:45:38;;;;;;;16.70;6.00;;;;;;;8.80;45.49;101126.92;1688454;84;21403;-77
2021/03/23 06:48:30;;;;;;;18.92;7.00;;;;;;;9.03;45.35;101119.18;1693673;83;21958;-78
2021/03/23 06:51:15;;;;;;;35.95;11.43;;;;;;;9.16;43.58;101122.56;1706993;83;21352;-77
2021/03/23 06:53:49;;;;;;;58.75;21.55;;;;;;;9.15;43.68;101118.11;1692333;83;21432;-78
2021/03/23 06:56:24;;;;;;;;;;;;;;;9.15;43.59;101113.95;1720055;83;21332;-77
2021/03/23 06:59:16;;;;;;;17.75;4.97;;;;;;;9.25;43.42;101116.95;1708961;83;20287;-78
2021/03/23 07:01:51;;;;;;;9.40;3.02;;;;;;;9.33;43.97;101129.60;1726300;82;21367;-79
2021/03/23 07:04:38;;;;;;;8.83;4.08;;;;;;;9.45;42.59;101111.03;1725668;83;21208;-77
2021/03/23 07:07:18;;;;;;;6.92;2.60;;;;;;;9.41;42.76;101120.38;1738653;81;21742;-78
2021/03/23 07:09:58;;;;;;;8.15;2.47;;;;;;;9.28;42.04;101115.63;1742093;82;21317;-78
2021/03/23 07:12:47;;;;;;;19.62;2.92;;;;;;;9.03;42.42;101117.80;1729051;82;21391;-78
2021/03/23 07:15:25;;;;;;;9.13;3.00;;;;;;;8.92;43.36;101125.02;1725723;83;21344;-78
2021/03/23 07:18:12;;;;;;;8.75;2.52;;;;;;;9.02;43.98;101125.81;1725694;83;21246;-78
2021/03/23 07:20:51;;;;;;;12.73;2.85;;;;;;;9.08;42.56;101123.46;1725835;82;21668;-76
2021/03/23 07:23:41;;;;;;;12.35;3.02;;;;;;;9.06;41.61;101114.56;1725810;83;21245;-75
2021/03/23 07:26:35;;;;;;;11.55;2.62;;;;;;;8.99;41.02;101117.99;1727633;82;21209;-78
2021/03/23 07:29:37;;;;;;;15.40;1.95;;;;;;;8.99;41.01;101117.44;1729151;82;21338;-75
2021/03/23 07:32:46;;;;;;;6.75;2.35;;;;;;;8.91;40.10;101110.02;1746905;82;21350;-79
2021/03/23 07:35:37;;;;;;;8.58;2.90;;;;;;;8.82;41.36;101115.06;1725551;82;21382;-76
2021/03/23 07:38:44;;;;;;;7.65;2.22;;;;;;;8.91;39.82;101115.56;1725430;83;21357;-74
2021/03/23 07:41:28;;;;;;;10.70;2.52;;;;;;;8.93;39.84;101113.41;1738522;82;21194;-76
2021/03/23 07:44:09;;;;;;;7.47;2.22;;;;;;;8.91;39.75;101116.41;1755788;82;21817;-76
2021/03/23 07:46:52;;;;;;;13.00;2.70;;;;;;;9.00;39.73;101108.59;1752830;82;21214;-75
2021/03/23 07:49:48;;;;;;;15.97;2.70;;;;;;;9.09;39.04;101117.69;1756253;82;21340;-77
2021/03/23 07:52:28;;;;;;;7.92;2.52;;;;;;;9.03;38.66;101112.26;1751701;82;21831;-78
2021/03/23 07:55:02;;;;;;;12.58;3.05;;;;;;;8.85;38.27;101116.52;1749242;82;22383;-79
2021/03/23 07:58:27;;;;;;;6.12;2.75;;;;;;;8.60;38.64;101113.96;1755598;82;21353;-78
2021/03/23 08:01:32;;;;;;;8.05;2.08;;;;;;;8.47;38.07;101126.62;1749402;82;21441;-73
2021/03/23 08:04:12;;;;;;;10.18;2.60;;;;;;;8.26;36.52;101105.57;1740393;82;21418;-76
2021/03/23 08:07:01;;;;;;;8.35;2.52;;;;;;;8.07;37.13;101099.72;1737423;82;21861;-74
2021/03/23 08:10:04;;;;;;;8.33;1.92;;;;;;;8.07;36.14;101107.49;1726195;82;21964;-75
2021/03/23 08:13:06;;;;;;;6.22;2.20;;;;;;;7.99;36.31;101097.30;1698968;82;21309;-73
2021/03/23 08:16:08;;;;;;;6.33;1.87;;;;;;;8.00;37.91;101092.92;1680818;84;21206;-74
2021/03/23 08:19:08;;;;;;;10.80;2.15;;;;;;;8.09;38.36;101084.59;1727400;82;21179;-74
2021/03/23 08:21:56;;;;;;;10.00;2.17;;;;;;;8.16;37.40;101077.59;1720767;83;21384;-75
2021/03/23 08:24:42;;;;;;;11.05;2.85;;;;;;;8.21;37.20;101085.51;1729162;82;21380;-73
2021/03/23 08:27:43;;;;;;;10.28;2.98;;;;;;;8.21;37.31;101077.77;1731415;82;21383;-75
2021/03/23 08:30:33;;;;;;;13.60;3.22;;;;;;;8.18;37.04;101087.34;1727118;82;21235;-78
2021/03/23 08:33:55;;;;;;;6.20;2.05;;;;;;;8.17;37.38;101075.98;1726563;82;21911;-76
2021/03/23 08:37:22;;;;;;;13.25;2.58;;;;;;;8.18;34.74;101079.58;1736144;82;21396;-73
2021/03/23 08:40:06;;;;;;;3.05;1.65;;;;;;;7.96;34.59;101076.48;1728228;82;21792;-76
2021/03/23 08:42:39;;;;;;;4.85;2.08;;;;;;;7.76;35.66;101079.21;1701040;83;21333;-72
2021/03/23 08:45:29;;;;;;;6.33;1.75;;;;;;;7.69;35.88;101066.02;1719487;82;21684;-75
2021/03/23 08:48:12;;;;;;;9.78;2.00;;;;;;;7.65;35.68;101073.12;1721808;82;21715;-75
2021/03/23 08:50:45;;;;;;;13.07;2.20;;;;;;;7.58;36.65;101067.66;1707606;82;21388;-75
2021/03/23 08:53:42;;;;;;;12.10;2.47;;;;;;;7.59;36.10;101067.96;1719624;83;21756;-75
2021/03/23 08:56:15;;;;;;;5.70;2.00;;;;;;;7.61;35.55;101057.55;1719237;82;21206;-76
2021/03/23 08:58:49;;;;;;;6.47;2.10;;;;;;;7.56;35.28;101063.44;1723232;82;21234;-75
2021/03/23 09:01:33;;;;;;;;;;;;;;;7.52;35.56;101049.25;1725801;82;21329;-72
2021/03/23 09:04:11;;;;;;;8.83;2.47;;;;;;;7.52;35.84;101053.39;1715803;83;20255;-78
2021/03/23 09:06:56;;;;;;;6.80;2.40;;;;;;;7.57;34.82;101063.22;1665396;86;21228;-77
2021/03/23 09:09:39;;;;;;;11.53;3.00;;;;;;;7.61;35.28;101054.78;1705948;83;21242;-77
2021/03/23 09:12:41;;;;;;;30.60;3.52;;;;;;;7.72;35.38;101052.59;1660188;86;21522;-71
2021/03/23 09:15:26;;;;;;;10.32;3.50;;;;;;;7.82;34.49;101064.47;1697346;84;21392;-71
2021/03/23 09:18:06;;;;;;;5.50;2.90;;;;;;;7.78;33.11;101048.89;1659991;86;21435;-73
2021/03/23 09:20:45;;;;;;;5.05;1.85;;;;;;;7.72;32.97;101056.73;1706831;83;21332;-74
2021/03/23 09:23:24;;;;;;;6.22;1.90;;;;;;;7.68;33.71;101049.15;1685995;85;21388;-74
2021/03/23 09:25:58;;;;;;;9.65;2.00;;;;;;;7.73;34.12;101050.67;1715292;83;21881;-71
2021/03/23 09:28:55;;;;;;;7.92;2.20;;;;;;;7.81;33.87;101047.06;1688204;85;21360;-73
2021/03/23 09:31:31;;;;;;;3.60;1.82;;;;;;;7.84;33.57;101042.98;1702065;83;21360;-73
2021/03/23 09:34:04;;;;;;;9.33;1.72;;;;;;;7.85;34.07;101033.05;1680238;84;21383;-75
2021/03/23 09:36:52;;;;;;;6.00;2.27;;;;;;;7.86;34.55;101034.77;1660299;85;21409;-75
2021/03/23 09:39:30;;;;;;;9.75;2.55;;;;;;;7.93;34.58;101031.36;1671247;85;21366;-73
2021/03/23 09:42:20;;;;;;;10.23;2.08;;;;;;;7.99;34.50;101030.42;1669490;84;21395;-75
2021/03/23 09:45:14;;;;;;;8.95;2.52;;;;;;;8.02;34.02;101036.84;1612475;88;21266;-70
2021/03/23 09:48:00;;;;;;;8.80;3.12;;;;;;;8.02;33.02;101027.17;1650060;83;21260;-72
2021/03/23 09:50:41;;;;;;;12.73;2.10;;;;;;;7.99;33.49;101020.75;1712731;83;21475;-71
2021/03/23 09:53:28;;;;;;;5.17;1.95;;;;;;;7.99;33.66;101015.22;1682438;85;21389;-71
2021/03/23 09:56:14;;;;;;;6.67;1.80;;;;;;;7.98;33.34;101012.16;1686282;85;21892;-74
2021/03/23 09:58:46;;;;;;;5.35;2.45;;;;;;;8.00;33.42;101006.36;1711792;83;21346;-73
2021/03/23 10:01:23;;;;;;;8.65;2.15;;;;;;;8.03;33.81;101003.14;1673111;85;21412;-74
2021/03/23 10:03:58;;;;;;;7.83;1.70;;;;;;;8.08;33.71;100986.13;1712046;83;21344;-70
2021/03/23 10:06:48;;;;;;;11.68;2.15;;;;;;;8.07;33.73;100991.37;1726703;82;21363;-74
2021/03/23 10:09:33;;;;;;;9.28;2.33;;;;;;;8.09;33.83;100988.38;1717874;82;21368;-73
2021/03/23 10:12:08;;;;;;;8.13;1.90;;;;;;;8.09;34.14;100985.05;1715081;83;21357;-75
2021/03/23 10:14:41;;;;;;;8.38;1.60;;;;;;;8.11;33.73;100980.14;1719291;82;21967;-73
2021/03/23 10:17:27;;;;;;;3.92;1.47;;;;;;;8.13;33.16;100984.89;1719322;82;21810;-74
2021/03/23 10:20:01;;;;;;;5.90;1.72;;;;;;;8.12;32.11;100985.97;1718877;82;21448;-75
2021/03/23 10:22:37;;;;;;;5.30;1.80;;;;;;;8.00;32.41;100983.72;1717362;82;21346;-74
2021/03/23 10:25:17;;;;;;;4.92;1.72;;;;;;;7.95;33.11;100986.34;1717303;82;21856;-77
2021/03/23 10:27:50;;;;;;;10.65;2.08;;;;;;;7.94;33.31;100976.37;1675928;84;21823;-75
2021/03/23 10:30:36;;;;;;;5.35;1.87;;;;;;;8.00;32.99;100975.42;1711281;83;21356;-74
2021/03/23 10:33:29;;;;;;;2.05;1.05;;;;;;;8.04;33.43;100979.94;1734842;81;21779;-76
2021/03/23 10:36:08;;;;;;;2.55;1.50;;;;;;;8.01;32.83;100966.58;1738964;81;21399;-76
2021/03/23 10:38:47;;;;;;;5.85;2.37;;;;;;;7.94;33.10;100958.41;1738938;81;21861;-75
2021/03/23 10:41:25;;;;;;;5.78;1.90;;;;;;;7.97;33.48;100956.53;1734764;81;21363;-74
2021/03/23 10:44:23;;;;;;;7.17;1.35;;;;;;;8.01;31.51;100965.19;1730509;83;21230;-75
2021/03/23 10:46:59;;;;;;;8.00;1.85;;;;;;;7.93;32.06;100954.48;1734848;81;21329;-73
2021/03/23 10:49:37;;;;;;;10.08;3.05;;;;;;;7.89;32.22;100962.41;1734887;81;21356;-75
2021/03/23 10:52:23;;;;;;;4.12;1.80;;;;;;;7.85;32.08;100958.42;1734704;81;21189;-73
2021/03/23 10:55:27;;;;;;;10.50;3.47;;;;;;;7.83;32.76;100950.92;1739147;81;21199;-75
2021/03/23 10:58:21;;;;;;;11.03;1.98;;;;;;;7.81;32.41;100951.70;1693053;84;21397;-71
2021/03/23 11:01:16;;;;;;;11.53;2.20;;;;;;;7.74;33.04;100945.97;1730362;82;21393;-76
2021/03/23 11:03:52;;;;;;;18.48;1.92;;;;;;;7.74;33.20;100934.39;1714896;83;21748;-72
2021/03/23 11:06:34;;;;;;;13.45;1.90;;;;;;;7.80;33.58;100919.63;1719152;82;21877;-74
2021/03/23 11:09:14;;;;;;;8.83;1.70;;;;;;;7.91;32.71;100920.72;1719308;82;21409;-77
2021/03/23 11:11:54;;;;;;;5.03;1.65;;;;;;;7.89;32.52;100918.75;1715442;82;21366;-74
2021/03/23 11:14:22;;;;;;;7.62;1.70;;;;;;;7.88;33.38;100908.22;1714740;83;21334;-71
2021/03/23 11:16:59;;;;;;;4.42;1.55;;;;;;;7.99;33.57;100909.31;1723485;82;21247;-71
2021/03/23 11:19:36;;;;;;;4.30;1.77;;;;;;;8.12;33.56;100910.45;1723256;82;21378;-70
2021/03/23 11:22:12;;;;;;;5.53;1.67;;;;;;;8.23;32.86;100906.90;1723184;82;21336;-75
2021/03/23 11:24:48;;;;;;;6.28;2.12;;;;;;;8.29;33.04;100901.27;1719478;83;21258;-73
2021/03/23 11:27:26;;;;;;;4.40;1.87;;;;;;;8.41;33.13;100896.56;1719340;82;21356;-73
2021/03/23 11:29:59;;;;;;;8.15;2.00;;;;;;;8.54;33.07;100893.55;1716561;82;21362;-73
2021/03/23 11:32:32;;;;;;;16.10;2.55;;;;;;;8.68;31.54;100888.04;1718345;82;21266;-76
2021/03/23 11:35:09;;;;;;;9.80;3.20;;;;;;;8.70;31.40;100880.88;1719150;82;21768;-71
2021/03/23 11:37:43;;;;;;;7.97;2.30;;;;;;;8.74;32.08;100875.14;1715479;82;21338;-71
2021/03/23 11:40:22;;;;;;;6.87;1.80;;;;;;;8.77;31.79;100864.45;1728210;82;21409;-69
2021/03/23 11:42:52;;;;;;;4.15;1.62;;;;;;;8.83;31.54;100864.00;1719114;82;21329;-74
2021/03/23 11:45:38;;;;;;;6.47;1.40;;;;;;;8.86;32.06;100869.03;1718894;82;21198;-70
2021/03/23 11:48:12;;;;;;;7.58;2.02;;;;;;;8.91;31.43;100863.07;1719184;82;21838;-75
2021/03/23 11:50:50;;;;;;;5.62;1.75;;;;;;;8.99;32.03;100857.70;1724295;82;21183;-72
2021/03/23 11:53:24;;;;;;;4.97;1.70;;;;;;;9.09;32.37;100857.35;1722995;82;21341;-74
2021/03/23 11:55:57;;;;;;;1.40;1.20;;;;;;;9.21;31.26;100858.67;1719228;82;21202;-76
2021/03/23 11:58:31;;;;;;;;;;;;;;;9.28;31.54;100851.91;1725688;82;21221;-69
2021/03/23 12:01:07;;;;;;;2.65;1.50;;;;;;;9.35;30.96;100852.59;1719198;82;20262;-73
2021/03/23 12:03:42;;;;;;;5.30;1.42;;;;;;;9.37;31.01;100846.23;1643924;86;21278;-71
2021/03/23 12:06:16;;;;;;;3.52;1.57;;;;;;;9.37;30.38;100855.94;1646314;86;21270;-69
2021/03/23 12:08:53;;;;;;;4.53;1.55;;;;;;;9.33;30.56;100842.30;1601999;89;21553;-71
2021/03/23 12:11:31;;;;;;;10.35;2.00;;;;;;;9.31;30.88;100833.95;1607881;88;21389;-73
2021/03/23 12:14:32;;;;;;;8.15;2.55;;;;;;;9.33;31.01;100836.77;1654432;86;21225;-68
2021/03/23 12:17:10;;;;;;;9.23;2.10;;;;;;;9.36;31.43;100837.64;1656430;86;21743;-69
2021/03/23 12:19:52;;;;;;;4.65;2.05;;;;;;;9.42;30.88;100838.59;1652516;86;21890;-73
2021/03/23 12:22:31;;;;;;;3.77;1.70;;;;;;;9.41;30.69;100839.66;1696769;83;21210;-71
2021/03/23 12:25:06;;;;;;;4.33;1.50;;;;;;;9.38;30.63;100831.33;1725039;83;21180;-73
2021/03/23 12:27:41;;;;;;;9.63;1.47;;;;;;;9.37;30.76;100837.11;1696574;83;21270;-71